Time;durP1;ratioP1;P1;durP2;ratioP2;P2;SDS_P1;SDS_P2;PMS_P1;PMS_P2;Temp;Humidity;BMP_temperature;BMP_pressure;BME280_temperature;BME280_humidity;BME280_pressure;Samples;Min_cycle;Max_cycle;Signal;HPM_P1;HPM_P2
2022/06/10 00:01:14;;;;;;;6.60;2.30;;;17.80;93.20;;;;;;4974652;28;20077;-75
2022/06/10 00:03:40;;;;;;;5.45;2.00;;;17.90;93.20;;;;;;4973290;28;20118;-74
2022/06/10 00:06:08;;;;;;;5.40;2.17;;;17.90;93.10;;;;;;4987408;28;20121;-75
2022/06/10 00:08:40;;;;;;;5.63;2.00;;;17.90;93.10;;;;;;4986992;28;20031;-74
2022/06/10 00:11:08;;;;;;;5.53;1.95;;;17.90;93.10;;;;;;4954988;28;20027;-72
2022/06/10 00:13:36;;;;;;;4.85;1.98;;;17.90;93.10;;;;;;4962646;28;20118;-75
2022/06/10 00:16:02;;;;;;;6.82;2.25;;;17.80;93.00;;;;;;4954800;28;20121;-75
2022/06/10 00:18:29;;;;;;;5.13;2.08;;;17.80;93.10;;;;;;4954273;28;20033;-75
2022/06/10 00:20:56;;;;;;;6.95;2.40;;;17.80;93.20;;;;;;4988455;28;20027;-74
2022/06/10 00:23:22;;;;;;;4.43;2.03;;;17.80;93.20;;;;;;4954353;28;20109;-75
2022/06/10 00:25:48;;;;;;;4.68;2.05;;;17.80;93.10;;;;;;4971818;28;20059;-75
2022/06/10 00:28:14;;;;;;;5.13;2.15;;;17.80;93.20;;;;;;4954651;28;20034;-75
2022/06/10 00:30:40;;;;;;;5.70;2.30;;;17.70;93.20;;;;;;4971653;28;20031;-74
2022/06/10 00:33:07;;;;;;;6.32;2.22;;;17.70;93.20;;;;;;4986436;28;20019;-74
2022/06/10 00:35:33;;;;;;;4.75;1.95;;;17.70;93.30;;;;;;4971664;28;20722;-74
2022/06/10 00:37:59;;;;;;;4.93;2.05;;;17.70;93.30;;;;;;4988317;28;20023;-75
2022/06/10 00:40:30;;;;;;;7.13;2.22;;;17.70;93.40;;;;;;4975064;28;20034;-75
2022/06/10 00:42:56;;;;;;;5.43;2.20;;;17.70;93.30;;;;;;4957431;28;20042;-75
2022/06/10 00:45:55;;;;;;;6.43;2.30;;;17.70;93.30;;;;;;4974039;28;20113;-75
2022/06/10 00:48:47;;;;;;;4.85;2.22;;;17.70;93.30;;;;;;4973528;28;20030;-74
2022/06/10 00:51:27;;;;;;;6.10;2.17;;;17.70;93.40;;;;;;4988905;28;20041;-75
2022/06/10 00:53:59;;;;;;;5.32;2.10;;;17.80;93.40;;;;;;4972485;28;20019;-74
2022/06/10 00:56:26;;;;;;;6.35;2.40;;;17.80;93.30;;;;;;4988633;28;20038;-74
2022/06/10 00:59:03;;;;;;;6.00;2.38;;;17.80;93.20;;;;;;4989547;28;20027;-74
2022/06/10 01:01:31;;;;;;;5.85;2.20;;;17.80;93.10;;;;;;4980865;28;20038;-75
2022/06/10 01:03:57;;;;;;;6.25;2.30;;;17.80;93.10;;;;;;4957280;28;20500;-75
2022/06/10 01:06:23;;;;;;;5.03;2.25;;;17.80;93.00;;;;;;4957614;28;20022;-74
2022/06/10 01:08:51;;;;;;;4.97;2.30;;;17.90;93.00;;;;;;4957590;28;20038;-74
2022/06/10 01:11:41;;;;;;;5.40;2.22;;;17.80;93.00;;;;;;4954702;29;20038;-74
2022/06/10 01:14:18;;;;;;;5.43;2.10;;;17.80;93.10;;;;;;4972398;28;20628;-75
2022/06/10 01:17:03;;;;;;;4.68;2.35;;;17.70;93.10;;;;;;4970630;28;20283;-74
2022/06/10 01:20:05;;;;;;;4.95;2.30;;;17.80;93.20;;;;;;4956633;28;20645;-74
2022/06/10 01:23:07;;;;;;;5.53;2.20;;;17.70;93.20;;;;;;4963088;28;20035;-74
2022/06/10 01:26:21;;;;;;;5.80;2.00;;;17.70;93.20;;;;;;4957184;28;20109;-74
2022/06/10 01:29:21;;;;;;;4.00;1.95;;;17.70;93.20;;;;;;4974480;28;20062;-75
2022/06/10 01:32:17;;;;;;;4.88;2.10;;;17.70;93.20;;;;;;4970594;28;20035;-74
2022/06/10 01:34:57;;;;;;;5.43;2.30;;;17.70;93.40;;;;;;4961533;28;20113;-75
2022/06/10 01:37:32;;;;;;;4.97;2.53;;;17.70;93.30;;;;;;4973297;28;20451;-74
2022/06/10 01:40:06;;;;;;;4.53;1.80;;;17.70;93.40;;;;;;4989293;28;20118;-74
2022/06/10 01:42:43;;;;;;;4.18;1.85;;;17.60;93.40;;;;;;4973448;28;20078;-74
2022/06/10 01:45:36;;;;;;;5.18;1.83;;;17.70;93.40;;;;;;4956543;28;20105;-75
2022/06/10 01:48:07;;;;;;;5.57;2.60;;;17.70;93.40;;;;;;4974231;28;20141;-75
2022/06/10 01:50:52;;;;;;;5.07;2.25;;;17.70;93.40;;;;;;4972453;28;20037;-74
2022/06/10 01:53:22;;;;;;;5.45;2.13;;;17.70;93.30;;;;;;4974074;28;20027;-75
2022/06/10 01:56:00;;;;;;;4.82;2.38;;;17.70;93.20;;;;;;4988983;28;20030;-75
2022/06/10 01:58:38;;;;;;;5.60;2.40;;;17.70;93.20;;;;;;4989155;28;20031;-75
2022/06/10 02:01:11;;;;;;;4.07;2.15;;;17.70;93.10;;;;;;4956795;28;20023;-75
2022/06/10 02:03:46;;;;;;;4.93;2.50;;;17.80;93.00;;;;;;4973776;28;20041;-75
2022/06/10 02:06:35;;;;;;;6.35;2.75;;;17.80;93.00;;;;;;4974001;28;20035;-75
2022/06/10 02:09:07;;;;;;;6.20;2.70;;;17.80;92.90;;;;;;4988753;28;20037;-74
2022/06/10 02:11:36;;;;;;;4.85;2.30;;;17.70;92.90;;;;;;4956585;28;20109;-75
2022/06/10 02:14:08;;;;;;;6.10;2.45;;;17.80;93.00;;;;;;4988709;28;20502;-74
2022/06/10 02:16:39;;;;;;;5.55;2.30;;;17.70;93.00;;;;;;4956344;28;20117;-75
2022/06/10 02:19:09;;;;;;;4.43;2.13;;;17.70;93.10;;;;;;4956489;28;20041;-75
2022/06/10 02:21:43;;;;;;;6.45;2.38;;;17.70;93.20;;;;;;4956297;28;20551;-74
2022/06/10 02:24:26;;;;;;;4.53;2.20;;;17.70;93.20;;;;;;4988375;28;20487;-74
2022/06/10 02:26:54;;;;;;;4.07;2.08;;;17.70;93.30;;;;;;4973701;28;20035;-75
2022/06/10 02:29:27;;;;;;;4.32;2.22;;;17.70;93.20;;;;;;4972895;28;20381;-75
2022/06/10 02:31:56;;;;;;;4.75;2.40;;;17.70;93.30;;;;;;4956173;28;20089;-75
2022/06/10 02:34:22;;;;;;;4.65;2.20;;;17.70;93.30;;;;;;4987781;28;20456;-75
2022/06/10 02:37:18;;;;;;;5.45;2.47;;;17.60;93.20;;;;;;4988066;28;20027;-75
2022/06/10 02:39:54;;;;;;;4.97;2.50;;;17.60;93.30;;;;;;4988607;28;20034;-75
2022/06/10 02:43:01;;;;;;;5.50;2.58;;;17.60;93.30;;;;;;4988398;28;20039;-74
2022/06/10 02:45:43;;;;;;;4.60;2.15;;;17.70;93.30;;;;;;4918196;29;20524;-75
2022/06/10 02:48:24;;;;;;;5.70;2.83;;;17.60;93.30;;;;;;4970038;28;20038;-74
2022/06/10 02:50:49;;;;;;;4.97;2.63;;;17.60;93.30;;;;;;4972203;28;20030;-75
2022/06/10 02:53:15;;;;;;;5.10;2.70;;;17.70;93.20;;;;;;4955340;28;20707;-74
2022/06/10 02:55:41;;;;;;;5.70;2.95;;;17.70;93.20;;;;;;4956088;28;20049;-75
2022/06/10 03:01:20;;;;;;;4.68;2.60;;;17.70;93.00;;;;;;4972707;28;20224;-75
2022/06/10 03:04:12;;;;;;;6.22;2.72;;;17.80;92.90;;;;;;4987127;28;20066;-74
2022/06/10 03:07:08;;;;;;;6.13;2.90;;;17.80;92.90;;;;;;4971504;28;20496;-75
2022/06/10 03:09:58;;;;;;;6.15;3.20;;;17.80;92.90;;;;;;4971784;28;20035;-75
2022/06/10 03:12:36;;;;;;;6.65;3.20;;;17.70;92.90;;;;;;4972935;28;20027;-74
2022/06/10 03:15:39;;;;;;;6.25;2.97;;;17.70;92.90;;;;;;4987634;28;20034;-75
2022/06/10 03:18:29;;;;;;;4.78;2.50;;;17.70;93.00;;;;;;4968061;28;20039;-74
2022/06/10 03:21:07;;;;;;;5.28;2.88;;;17.70;93.10;;;;;;4953732;29;20035;-75
2022/06/10 03:23:58;;;;;;;6.07;3.03;;;17.70;93.10;;;;;;4953311;28;20089;-76
2022/06/10 03:26:50;;;;;;;5.13;2.50;;;17.70;93.20;;;;;;4987456;28;20120;-74
2022/06/10 03:29:50;;;;;;;5.72;2.83;;;17.60;93.40;;;;;;4972782;28;20023;-74
2022/06/10 03:32:44;;;;;;;6.10;2.80;;;17.60;93.20;;;;;;4989060;28;20106;-74
2022/06/10 03:35:21;;;;;;;5.20;2.60;;;17.60;93.20;;;;;;4979127;28;20034;-75
2022/06/10 03:37:48;;;;;;;5.28;2.60;;;17.60;93.20;;;;;;4955084;28;20516;-74
2022/06/10 03:40:23;;;;;;;5.18;2.83;;;17.60;93.30;;;;;;4972185;28;20030;-74
2022/06/10 03:42:52;;;;;;;4.80;2.70;;;17.60;93.20;;;;;;4972227;28;20166;-75
2022/06/10 03:45:23;;;;;;;6.93;3.03;;;17.70;93.20;;;;;;4955100;28;20019;-75
2022/06/10 03:47:49;;;;;;;6.10;3.45;;;17.60;93.20;;;;;;4971889;28;20031;-75
2022/06/10 03:50:18;;;;;;;5.32;3.08;;;17.60;93.20;;;;;;4972518;28;20412;-74
2022/06/10 03:52:45;;;;;;;6.32;3.00;;;17.60;93.10;;;;;;4987059;28;20053;-74
2022/06/10 03:55:16;;;;;;;5.72;3.40;;;17.70;93.10;;;;;;4967435;28;20032;-74
2022/06/10 03:57:43;;;;;;;4.65;2.85;;;17.70;93.00;;;;;;4950964;28;20034;-74
2022/06/10 04:00:13;;;;;;;5.10;3.00;;;17.70;92.90;;;;;;4972234;28;20129;-74
2022/06/10 04:02:39;;;;;;;6.78;3.10;;;17.70;92.80;;;;;;4986894;28;20027;-74
2022/06/10 04:05:05;;;;;;;5.55;2.90;;;17.70;92.70;;;;;;4986886;28;20081;-75
2022/06/10 04:07:30;;;;;;;5.75;3.53;;;17.70;92.70;;;;;;4987006;28;20033;-75
2022/06/10 04:09:56;;;;;;;5.53;3.50;;;17.70;92.70;;;;;;4972159;28;20399;-74
2022/06/10 04:12:22;;;;;;;6.05;3.17;;;17.70;92.70;;;;;;4972693;28;20455;-74
2022/06/10 04:14:47;;;;;;;5.00;3.22;;;17.70;92.80;;;;;;4991035;28;20094;-74
2022/06/10 04:17:13;;;;;;;6.53;3.15;;;17.70;92.90;;;;;;4990649;28;20019;-74
2022/06/10 04:19:39;;;;;;;5.35;2.85;;;17.70;93.00;;;;;;4958614;28;20027;-75
2022/06/10 04:22:04;;;;;;;5.75;3.42;;;17.60;93.00;;;;;;4975749;28;20824;-74
2022/06/10 04:24:30;;;;;;;4.85;2.85;;;17.60;93.00;;;;;;4975078;28;20065;-74
2022/06/10 04:26:56;;;;;;;4.68;2.83;;;17.60;93.10;;;;;;4975673;28;20030;-74
2022/06/10 04:29:21;;;;;;;6.00;3.33;;;17.60;93.10;;;;;;4990455;28;20400;-75
2022/06/10 04:31:47;;;;;;;5.22;3.00;;;17.70;93.10;;;;;;4979346;28;20386;-74
2022/06/10 04:34:14;;;;;;;5.63;3.03;;;17.60;93.10;;;;;;4959621;28;20027;-74
2022/06/10 04:36:39;;;;;;;5.80;3.30;;;17.60;93.10;;;;;;4975767;28;20033;-75
2022/06/10 04:39:05;;;;;;;5.85;3.45;;;17.60;93.10;;;;;;4990727;28;20423;-74
2022/06/10 04:41:31;;;;;;;5.68;3.10;;;17.60;93.10;;;;;;4990529;28;20023;-74
2022/06/10 04:43:57;;;;;;;5.25;3.15;;;17.60;93.10;;;;;;4956580;28;20077;-73
2022/06/10 04:46:38;;;;;;;6.40;3.38;;;17.60;93.00;;;;;;4974263;28;20026;-74
2022/06/10 04:49:05;;;;;;;6.70;3.50;;;17.60;93.00;;;;;;4990192;28;20066;-74
2022/06/10 04:51:31;;;;;;;5.75;3.50;;;17.60;92.90;;;;;;4975251;28;20033;-74
2022/06/10 04:53:57;;;;;;;5.57;3.47;;;17.60;92.90;;;;;;4989443;28;20110;-74
2022/06/10 04:56:22;;;;;;;5.10;3.08;;;17.70;92.80;;;;;;4954945;28;20460;-74
2022/06/10 04:58:47;;;;;;;5.35;3.13;;;17.70;92.70;;;;;;4989543;28;20041;-74
2022/06/10 05:01:13;;;;;;;7.43;3.88;;;17.80;92.70;;;;;;4984921;28;20077;-74
2022/06/10 05:03:39;;;;;;;4.95;3.28;;;17.70;92.50;;;;;;4989497;28;20065;-74
2022/06/10 05:06:05;;;;;;;6.43;3.90;;;17.70;92.50;;;;;;4974247;28;20508;-75
2022/06/10 05:08:30;;;;;;;6.55;4.07;;;17.70;92.50;;;;;;4974038;28;20428;-76
2022/06/10 05:10:56;;;;;;;5.90;3.83;;;17.70;92.40;;;;;;4957293;28;20050;-74
2022/06/10 05:13:21;;;;;;;7.00;4.28;;;17.70;92.50;;;;;;4974330;28;20105;-75
2022/06/10 05:15:48;;;;;;;6.10;3.70;;;17.70;92.60;;;;;;4989939;28;20035;-75
2022/06/10 05:18:17;;;;;;;5.63;3.53;;;17.70;92.60;;;;;;4974113;28;20057;-74
2022/06/10 05:20:43;;;;;;;5.97;3.90;;;17.70;92.60;;;;;;4957493;28;20030;-75
2022/06/10 05:23:11;;;;;;;6.85;3.92;;;17.70;92.60;;;;;;4973531;28;20033;-75
2022/06/10 05:25:37;;;;;;;6.00;3.47;;;17.70;92.60;;;;;;4957272;28;20117;-75
2022/06/10 05:28:03;;;;;;;5.95;3.78;;;17.70;92.70;;;;;;4988884;28;20037;-75
2022/06/10 05:30:31;;;;;;;6.22;3.65;;;17.70;92.70;;;;;;4968475;28;20026;-74
2022/06/10 05:32:58;;;;;;;5.82;3.80;;;17.70;92.70;;;;;;4989318;28;20030;-74
2022/06/10 05:35:23;;;;;;;5.40;3.60;;;17.70;92.70;;;;;;4973647;28;20027;-74
2022/06/10 05:37:49;;;;;;;6.35;3.78;;;17.70;92.70;;;;;;4992988;28;20093;-75
2022/06/10 05:40:15;;;;;;;6.00;3.70;;;17.70;92.70;;;;;;4965146;28;20042;-74
2022/06/10 05:42:43;;;;;;;6.30;3.65;;;17.70;92.70;;;;;;4974592;28;20019;-74
2022/06/10 05:45:11;;;;;;;6.55;4.00;;;17.70;92.60;;;;;;4973828;28;20026;-74
2022/06/10 05:47:37;;;;;;;6.70;4.13;;;17.70;92.60;;;;;;4957329;28;20027;-74
2022/06/10 05:50:16;;;;;;;5.75;3.80;;;17.70;92.60;;;;;;4973333;28;20397;-74
2022/06/10 05:52:41;;;;;;;6.28;3.88;;;17.70;92.50;;;;;;4957116;28;20464;-74
2022/06/10 05:55:09;;;;;;;6.82;3.85;;;17.70;92.40;;;;;;4956709;28;20114;-75
2022/06/10 05:57:34;;;;;;;6.30;3.90;;;17.80;92.60;;;;;;4974611;28;20018;-75
2022/06/10 06:00:01;;;;;;;6.05;3.47;;;17.80;92.20;;;;;;4974332;28;20070;-74
2022/06/10 06:02:27;;;;;;;5.82;3.70;;;17.90;92.20;;;;;;4956838;28;20031;-74
2022/06/10 06:04:52;;;;;;;5.50;3.90;;;17.90;92.00;;;;;;4973979;28;20037;-75
2022/06/10 06:07:28;;;;;;;5.45;3.85;;;17.80;92.00;;;;;;4957162;28;20141;-75
2022/06/10 06:09:55;;;;;;;6.07;3.55;;;17.80;92.00;;;;;;4956932;28;20038;-75
2022/06/10 06:12:22;;;;;;;6.05;3.97;;;17.80;92.10;;;;;;4973910;28;20027;-74
2022/06/10 06:14:47;;;;;;;6.18;3.83;;;17.90;92.20;;;;;;4972923;28;20035;-75
2022/06/10 06:17:14;;;;;;;6.38;3.67;;;17.80;92.20;;;;;;4988446;28;20448;-74
2022/06/10 06:19:40;;;;;;;6.05;3.70;;;17.80;92.30;;;;;;4973421;28;20034;-74
2022/06/10 06:22:07;;;;;;;5.47;3.92;;;17.80;92.10;;;;;;4975258;28;20066;-75
2022/06/10 06:24:33;;;;;;;5.82;3.50;;;17.80;92.20;;;;;;4954970;28;20093;-73
2022/06/10 06:26:59;;;;;;;6.40;3.50;;;17.80;92.20;;;;;;4987796;28;20496;-74
2022/06/10 06:29:24;;;;;;;6.00;3.75;;;17.80;92.20;;;;;;4988028;28;20034;-70
2022/06/10 06:31:54;;;;;;;5.55;3.60;;;17.80;92.40;;;;;;4973344;28;20396;-74
2022/06/10 06:34:20;;;;;;;5.35;3.53;;;17.90;92.40;;;;;;4973346;28;20034;-74
2022/06/10 06:36:48;;;;;;;6.53;3.58;;;17.80;92.30;;;;;;4972794;28;20018;-70
2022/06/10 06:39:16;;;;;;;5.72;3.70;;;17.90;92.30;;;;;;4973167;28;20121;-74
2022/06/10 06:41:42;;;;;;;5.35;3.63;;;17.80;92.20;;;;;;4973694;28;20029;-75
2022/06/10 06:44:08;;;;;;;5.85;3.65;;;17.80;92.20;;;;;;4988246;28;20030;-74
2022/06/10 06:46:35;;;;;;;5.88;3.45;;;17.90;92.10;;;;;;4956312;28;20026;-74
2022/06/10 06:49:04;;;;;;;5.80;3.47;;;17.90;92.10;;;;;;4973296;28;20038;-75
2022/06/10 06:51:29;;;;;;;6.05;3.85;;;17.90;92.10;;;;;;4988882;28;20448;-74
2022/06/10 06:53:55;;;;;;;5.90;3.60;;;17.90;92.00;;;;;;4955857;28;20096;-75
2022/06/10 06:56:20;;;;;;;5.45;3.58;;;17.90;92.00;;;;;;4973686;28;20050;-76
2022/06/10 06:58:46;;;;;;;6.65;3.55;;;18.00;91.90;;;;;;4988230;28;20022;-75
2022/06/10 07:01:11;;;;;;;6.05;3.60;;;18.00;91.70;;;;;;4988352;28;20480;-75
2022/06/10 07:03:37;;;;;;;7.28;4.32;;;18.00;91.70;;;;;;4988157;28;20039;-74
2022/06/10 07:06:03;;;;;;;5.10;3.28;;;18.10;91.60;;;;;;4955847;28;20074;-74
2022/06/10 07:08:31;;;;;;;6.00;3.45;;;18.10;91.60;;;;;;4973220;28;20089;-74
2022/06/10 07:10:58;;;;;;;5.75;3.50;;;18.10;91.60;;;;;;4988329;28;20026;-75
2022/06/10 07:13:24;;;;;;;4.88;3.25;;;18.10;91.60;;;;;;4955783;28;20081;-75
2022/06/10 07:15:50;;;;;;;4.75;3.17;;;18.00;91.60;;;;;;4973214;28;20030;-74
2022/06/10 07:18:15;;;;;;;5.97;3.90;;;18.00;91.60;;;;;;4973225;28;20077;-74
2022/06/10 07:20:41;;;;;;;6.63;3.70;;;18.00;91.60;;;;;;4955813;28;20034;-74
2022/06/10 07:23:07;;;;;;;5.88;3.75;;;18.00;91.60;;;;;;4987669;28;20411;-74
2022/06/10 07:25:33;;;;;;;6.07;3.88;;;18.10;91.60;;;;;;4973109;28;20504;-74
2022/06/10 07:27:59;;;;;;;5.80;3.60;;;18.00;91.60;;;;;;4987799;28;20094;-74
2022/06/10 07:30:27;;;;;;;6.05;3.97;;;18.10;91.60;;;;;;4972892;28;20102;-74
2022/06/10 07:32:53;;;;;;;7.00;4.20;;;18.10;91.60;;;;;;4972479;28;20022;-73
2022/06/10 07:35:20;;;;;;;6.43;4.35;;;18.10;91.60;;;;;;4955653;28;20026;-74
2022/06/10 07:37:47;;;;;;;6.63;4.38;;;18.10;91.60;;;;;;4987746;28;20456;-75
2022/06/10 07:43:04;;;;;;;5.88;4.00;;;18.10;91.60;;;;;;4972777;28;20089;-75
2022/06/10 07:45:30;;;;;;;5.95;3.95;;;18.10;91.60;;;;;;4972493;28;20113;-74
2022/06/10 07:47:55;;;;;;;5.35;3.78;;;18.10;91.50;;;;;;4987615;28;20477;-74
2022/06/10 07:50:23;;;;;;;6.35;4.20;;;18.10;91.60;;;;;;4972682;28;20596;-74
2022/06/10 07:52:48;;;;;;;6.18;3.92;;;18.10;91.60;;;;;;4972657;28;20019;-73
2022/06/10 07:55:14;;;;;;;6.07;3.83;;;18.20;91.50;;;;;;4987230;28;20145;-74
2022/06/10 07:57:39;;;;;;;6.78;4.20;;;18.20;91.40;;;;;;4972582;28;20033;-74
2022/06/10 08:00:06;;;;;;;6.60;3.70;;;18.20;91.40;;;;;;4972529;28;20085;-74
2022/06/10 08:02:31;;;;;;;6.18;4.00;;;18.30;91.30;;;;;;4972389;28;20579;-74
2022/06/10 08:04:57;;;;;;;5.70;3.80;;;18.30;91.20;;;;;;4955066;28;20026;-74
2022/06/10 08:07:23;;;;;;;5.50;3.70;;;18.30;91.20;;;;;;4987553;28;20033;-74
2022/06/10 08:09:48;;;;;;;6.40;4.20;;;18.20;91.20;;;;;;4955249;28;20114;-74
2022/06/10 08:12:14;;;;;;;5.93;3.83;;;18.20;91.30;;;;;;4972442;28;20440;-75
2022/06/10 08:14:39;;;;;;;6.30;4.05;;;18.20;91.30;;;;;;4987172;28;20015;-74
2022/06/10 08:17:07;;;;;;;7.43;4.38;;;18.20;91.40;;;;;;4972318;28;20539;-75
2022/06/10 08:19:33;;;;;;;5.97;3.67;;;18.20;91.50;;;;;;4955298;28;20408;-75
2022/06/10 08:24:42;;;;;;;6.15;3.88;;;18.20;91.50;;;;;;4972217;28;20046;-75
2022/06/10 08:27:08;;;;;;;5.30;3.70;;;18.20;91.40;;;;;;4972162;28;20022;-74
2022/06/10 08:29:33;;;;;;;5.93;3.78;;;18.20;91.40;;;;;;4987271;28;20084;-74
2022/06/10 08:31:59;;;;;;;6.65;3.88;;;18.20;91.40;;;;;;4972232;28;20023;-76
2022/06/10 08:34:24;;;;;;;5.75;3.95;;;18.20;91.30;;;;;;4987016;28;20090;-74
2022/06/10 08:36:50;;;;;;;6.32;4.10;;;18.20;91.30;;;;;;4972305;28;20031;-74
2022/06/10 08:39:15;;;;;;;5.85;3.72;;;18.30;91.40;;;;;;4955003;28;20031;-74
2022/06/10 08:42:06;;;;;;;6.65;4.20;;;18.20;91.40;;;;;;4987359;28;20110;-74
2022/06/10 08:44:39;;;;;;;;;;;18.30;91.40;;;;;;4972320;28;20559;-75
2022/06/10 08:47:25;;;;;;;5.72;3.88;;;18.20;91.40;;;;;;4954872;28;19910;-74
2022/06/10 08:50:19;;;;;;;5.47;3.58;;;18.20;91.50;;;;;;4972230;28;20518;-74
2022/06/10 08:53:04;;;;;;;5.57;3.72;;;18.20;91.50;;;;;;4972141;28;20022;-76
2022/06/10 08:55:41;;;;;;;5.90;3.75;;;18.20;91.50;;;;;;4970778;28;20035;-75
2022/06/10 08:58:18;;;;;;;6.07;3.58;;;18.20;91.40;;;;;;4971024;28;20073;-75
2022/06/10 09:00:46;;;;;;;5.50;3.53;;;18.30;91.40;;;;;;4975751;28;20111;-75
2022/06/10 09:03:28;;;;;;;6.93;3.92;;;18.30;91.40;;;;;;4975219;28;20335;-75
2022/06/10 09:05:59;;;;;;;5.78;3.42;;;18.30;91.40;;;;;;4958377;28;20385;-75
2022/06/10 09:08:44;;;;;;;6.03;3.70;;;18.30;91.40;;;;;;4958016;28;20038;-74
2022/06/10 09:11:31;;;;;;;7.40;4.30;;;18.20;91.40;;;;;;4975228;28;20023;-74
2022/06/10 09:14:17;;;;;;;6.10;3.80;;;18.20;91.40;;;;;;4975018;28;20484;-75
2022/06/10 09:17:27;;;;;;;5.43;3.40;;;18.20;91.50;;;;;;4975384;28;20046;-75
2022/06/10 09:20:18;;;;;;;6.07;3.58;;;18.20;91.50;;;;;;4975397;28;20488;-74
2022/06/10 09:22:51;;;;;;;6.13;3.72;;;18.20;91.50;;;;;;4975128;28;20165;-74
2022/06/10 09:25:32;;;;;;;5.47;3.58;;;18.20;91.60;;;;;;4957732;28;20054;-75
2022/06/10 09:27:59;;;;;;;5.78;3.60;;;18.20;91.60;;;;;;4990184;28;20026;-74
2022/06/10 09:30:39;;;;;;;7.03;3.55;;;18.20;91.60;;;;;;4990000;28;20035;-75
2022/06/10 09:33:54;;;;;;;5.63;3.47;;;18.10;91.60;;;;;;4957536;28;20030;-74
2022/06/10 09:36:34;;;;;;;5.30;3.10;;;18.10;91.60;;;;;;4915244;29;20032;-74
2022/06/10 09:42:38;;;;;;;5.80;3.55;;;18.20;91.60;;;;;;4972888;28;20089;-74
2022/06/10 09:45:19;;;;;;;5.55;3.40;;;18.20;91.50;;;;;;4974559;28;20031;-74
2022/06/10 09:48:02;;;;;;;5.22;3.33;;;18.30;91.50;;;;;;4974655;28;20022;-73
2022/06/10 09:50:37;;;;;;;5.47;3.28;;;18.30;91.40;;;;;;4974788;28;20536;-75
2022/06/10 09:53:31;;;;;;;5.68;3.30;;;18.30;91.30;;;;;;4974215;28;20090;-75
2022/06/10 09:56:36;;;;;;;5.30;3.25;;;18.40;91.20;;;;;;4989052;28;20046;-74
2022/06/10 09:59:14;;;;;;;5.25;3.35;;;18.40;91.10;;;;;;4989520;28;20452;-74
2022/06/10 10:02:10;;;;;;;5.18;3.28;;;18.40;91.00;;;;;;4957282;28;20472;-75
2022/06/10 10:05:21;;;;;;;4.60;2.85;;;18.50;91.00;;;;;;4972871;28;20090;-73
2022/06/10 10:07:52;;;;;;;4.85;3.10;;;18.40;91.00;;;;;;4971573;28;20039;-77
2022/06/10 10:10:49;;;;;;;5.35;3.20;;;18.40;91.10;;;;;;4987988;28;20048;-75
2022/06/10 10:13:34;;;;;;;5.55;3.28;;;18.30;91.20;;;;;;4974061;28;20101;-75
2022/06/10 10:15:59;;;;;;;6.18;3.47;;;18.30;91.30;;;;;;4974255;28;20027;-75
2022/06/10 10:18:40;;;;;;;5.40;3.20;;;18.30;91.40;;;;;;4973259;28;20037;-74
2022/06/10 10:21:13;;;;;;;5.45;3.40;;;18.30;91.50;;;;;;4957143;28;20496;-74
2022/06/10 10:23:46;;;;;;;5.43;3.20;;;18.20;91.50;;;;;;4973794;28;20054;-76
2022/06/10 10:26:29;;;;;;;5.60;3.20;;;18.20;91.60;;;;;;4956990;28;20037;-75
2022/06/10 10:29:04;;;;;;;5.50;2.92;;;18.20;91.60;;;;;;4974138;28;20161;-74
2022/06/10 10:31:37;;;;;;;4.93;2.90;;;18.20;91.70;;;;;;4974142;28;20019;-75
2022/06/10 10:34:05;;;;;;;5.03;3.00;;;18.20;91.70;;;;;;4988713;28;20030;-75
2022/06/10 10:36:48;;;;;;;5.07;2.90;;;18.20;91.70;;;;;;4989080;28;20531;-75
2022/06/10 10:39:23;;;;;;;4.72;3.08;;;18.10;91.70;;;;;;4973873;28;20378;-74
2022/06/10 10:41:49;;;;;;;4.78;3.00;;;18.10;91.70;;;;;;4974004;28;20034;-74
2022/06/10 10:44:25;;;;;;;5.40;3.13;;;18.10;91.70;;;;;;4973419;28;20054;-74
2022/06/10 10:47:08;;;;;;;4.60;3.08;;;18.10;91.70;;;;;;4972429;28;20122;-75
2022/06/10 10:49:38;;;;;;;4.18;2.70;;;18.20;91.90;;;;;;4972987;28;20034;-70
2022/06/10 10:52:27;;;;;;;5.95;3.10;;;18.20;91.60;;;;;;4973569;28;20058;-74
2022/06/10 10:55:13;;;;;;;4.95;3.00;;;18.30;91.60;;;;;;4988240;28;20504;-73
2022/06/10 10:58:00;;;;;;;5.07;3.05;;;18.30;91.50;;;;;;4972275;28;20023;-75
2022/06/10 11:00:40;;;;;;;4.35;2.92;;;18.30;91.40;;;;;;4972470;28;20025;-75
2022/06/10 11:03:05;;;;;;;4.38;2.45;;;18.30;91.30;;;;;;4988089;28;20034;-74
2022/06/10 11:05:36;;;;;;;4.20;2.72;;;18.30;91.30;;;;;;4973333;28;20476;-75
2022/06/10 11:08:16;;;;;;;5.07;3.20;;;18.30;91.20;;;;;;4973240;28;20026;-75
2022/06/10 11:10:56;;;;;;;4.83;2.93;;;18.30;91.20;;;;;;4973566;28;20452;-74
2022/06/10 11:13:45;;;;;;;5.30;2.92;;;18.30;91.30;;;;;;4973033;28;20276;-75
2022/06/10 11:16:18;;;;;;;4.82;2.70;;;18.30;91.40;;;;;;4972824;28;20051;-74
2022/06/10 11:18:48;;;;;;;5.10;3.13;;;18.30;91.40;;;;;;4973603;28;20026;-74
2022/06/10 11:21:14;;;;;;;4.70;2.90;;;18.30;91.40;;;;;;4972802;28;20039;-76
2022/06/10 11:23:50;;;;;;;4.53;2.80;;;18.30;91.50;;;;;;4955626;28;20027;-74
2022/06/10 11:26:19;;;;;;;3.83;2.50;;;18.30;91.50;;;;;;4988358;28;20107;-75
2022/06/10 11:28:46;;;;;;;4.43;2.58;;;18.30;91.50;;;;;;4974237;28;20057;-75
2022/06/10 11:31:30;;;;;;;4.50;2.75;;;18.20;91.50;;;;;;4948666;28;20086;-74
2022/06/10 11:33:58;;;;;;;4.55;2.85;;;18.20;91.50;;;;;;4966567;28;20097;-74
2022/06/10 11:36:33;;;;;;;4.78;2.72;;;18.30;91.70;;;;;;4952051;28;20019;-75
2022/06/10 11:39:27;;;;;;;4.90;2.83;;;18.30;91.50;;;;;;4955330;28;20045;-75
2022/06/10 11:42:07;;;;;;;3.85;2.60;;;18.20;91.50;;;;;;4955212;28;20060;-74
2022/06/10 11:44:37;;;;;;;4.07;2.65;;;18.20;91.50;;;;;;4955187;28;20464;-74
2022/06/10 11:47:12;;;;;;;5.38;2.70;;;18.30;91.50;;;;;;4954112;28;20133;-74
2022/06/10 11:50:01;;;;;;;4.50;2.45;;;18.30;91.50;;;;;;4979115;28;20035;-73
2022/06/10 11:52:35;;;;;;;5.75;2.80;;;18.30;91.40;;;;;;4968053;28;20058;-70
2022/06/10 11:55:14;;;;;;;5.50;2.63;;;18.40;91.60;;;;;;4967663;28;20041;-70
2022/06/10 12:00:45;;;;;;;5.78;2.35;;;18.40;91.40;;;;;;4969721;28;20900;-71
2022/06/10 12:03:33;;;;;;;9.05;3.13;;;18.40;91.20;;;;;;4970336;28;20027;-72
2022/06/10 12:06:14;;;;;;;8.88;2.50;;;18.40;91.10;;;;;;4969337;28;20045;-70
2022/06/10 12:08:54;;;;;;;9.43;3.05;;;18.50;91.20;;;;;;4979208;28;20024;-70
2022/06/10 12:11:44;;;;;;;5.18;2.33;;;18.50;91.20;;;;;;4966871;28;20038;-72
2022/06/10 12:14:16;;;;;;;7.22;2.50;;;18.50;91.30;;;;;;4969704;28;20041;-73
2022/06/10 12:16:46;;;;;;;9.25;2.53;;;18.50;91.40;;;;;;4965465;28;20027;-74
2022/06/10 12:19:20;;;;;;;5.68;2.40;;;18.50;91.50;;;;;;4949984;28;20119;-73
2022/06/10 12:21:46;;;;;;;7.50;2.33;;;18.60;91.60;;;;;;4967317;28;20069;-71
2022/06/10 12:24:17;;;;;;;7.25;2.47;;;18.60;91.70;;;;;;4967345;28;20026;-72
2022/06/10 12:26:59;;;;;;;7.55;2.80;;;18.70;92.10;;;;;;4969359;28;20023;-71
2022/06/10 12:29:47;;;;;;;5.90;2.25;;;18.80;92.40;;;;;;4966004;28;20035;-72
2022/06/10 12:32:28;;;;;;;6.72;2.83;;;18.90;92.20;;;;;;4963343;28;20098;-72
2022/06/10 12:35:17;;;;;;;7.45;2.50;;;19.00;92.40;;;;;;4969638;28;20055;-71
2022/06/10 12:37:57;;;;;;;7.80;2.45;;;19.10;93.00;;;;;;4957769;28;20488;-73
2022/06/10 12:40:34;;;;;;;10.73;3.10;;;19.20;93.20;;;;;;4971750;28;20031;-71
2022/06/10 12:43:10;;;;;;;7.90;2.42;;;19.30;93.10;;;;;;4971544;28;20026;-72
2022/06/10 12:45:41;;;;;;;8.43;2.55;;;19.40;93.30;;;;;;4970589;28;20519;-72
2022/06/10 12:48:27;;;;;;;;;;;19.50;93.00;;;;;;4955435;28;20510;-71
2022/06/10 12:51:01;;;;;;;8.68;2.33;;;19.50;93.00;;;;;;4958566;28;19910;-70
2022/06/10 12:53:50;;;;;;;11.55;2.47;;;19.60;92.90;;;;;;4957330;28;20030;-71
2022/06/10 12:56:19;;;;;;;7.97;2.33;;;19.70;93.00;;;;;;4981676;28;20118;-71
2022/06/10 12:59:24;;;;;;;10.93;2.85;;;19.70;92.80;;;;;;4974022;28;20038;-71
2022/06/10 13:01:51;;;;;;;8.25;2.90;;;19.80;92.40;;;;;;4970669;28;20054;-71
2022/06/10 13:04:20;;;;;;;9.73;2.90;;;19.80;92.40;;;;;;4952320;28;20032;-72
2022/06/10 13:06:48;;;;;;;7.10;2.50;;;19.90;92.40;;;;;;4973213;28;20178;-71
2022/06/10 13:09:15;;;;;;;7.32;2.40;;;19.90;92.30;;;;;;4980785;28;20396;-71
2022/06/10 13:11:47;;;;;;;9.95;2.72;;;19.90;92.20;;;;;;4973769;28;20030;-70
2022/06/10 13:14:34;;;;;;;9.45;3.03;;;19.90;92.10;;;;;;4956013;28;20030;-72
2022/06/10 13:16:59;;;;;;;9.85;2.55;;;19.90;91.80;;;;;;4962978;28;20023;-72
2022/06/10 13:19:25;;;;;;;8.95;2.45;;;20.00;91.90;;;;;;4970300;28;20098;-71
2022/06/10 13:21:50;;;;;;;8.85;2.60;;;20.00;91.80;;;;;;4977761;28;20027;-73
2022/06/10 13:24:16;;;;;;;8.55;2.42;;;20.00;91.70;;;;;;4988145;28;20161;-72
2022/06/10 13:26:42;;;;;;;7.28;2.30;;;19.90;91.70;;;;;;4957510;28;20515;-71
2022/06/10 13:29:20;;;;;;;8.43;2.28;;;19.80;91.90;;;;;;4974311;28;20027;-71
2022/06/10 13:31:55;;;;;;;6.13;2.30;;;19.70;92.00;;;;;;4974596;28;20034;-74
2022/06/10 13:34:34;;;;;;;6.38;2.30;;;19.60;92.20;;;;;;4976289;28;20035;-75
2022/06/10 13:37:13;;;;;;;5.82;2.08;;;19.50;92.50;;;;;;4953663;28;20166;-75